Date,TemperatureHighF,TemperatureAvgF,TemperatureLowF,DewpointHighF,DewpointAvgF,DewpointLowF,HumidityHigh,HumidityAvg,HumidityLow,PressureMaxIn,PressureMinIn,WindSpeedMaxMPH,WindSpeedAvgMPH,GustSpeedMaxMPH,PrecipitationSumIn
2013-10-1,80.6,73.9,65.8,71.0,67.8,63.7,93,82,68,30.09,30.00,11,2,13,0.00
2013-10-2,81.4,71.8,62.3,70.2,65.9,61.1,96,83,61,30.09,30.03,12,2,15,0.00
2013-10-3,84.5,75.0,65.4,74.5,70.2,64.2,97,86,68,30.09,30.00,9,1,11,0.00
2013-10-4,87.4,77.2,67.3,75.2,71.4,66.1,97,84,55,30.09,30.00,10,1,14,0.00
2013-10-5,85.5,76.4,67.4,75.5,71.3,66.5,98,86,64,30.07,29.98,9,2,15,0.00
2013-10-6,87.6,77.2,68.1,76.8,72.4,67.2,98,86,62,30.00,29.85,11,1,14,0.01
2013-10-7,84.2,77.2,71.5,76.3,73.8,69.3,96,90,70,29.86,29.74,7,1,9,0.01
2013-10-8,79.8,73.7,67.4,75.1,71.8,65.9,97,94,83,30.00,29.77,9,1,14,0.06
2013-10-9,69.6,64.8,61.3,65.8,62.7,59.9,96,93,83,30.08,29.98,9,1,10,0.00
2013-10-10,81.9,68.7,56.7,67.9,62.0,55.6,97,82,51,30.07,29.97,6,1,10,0.01
2013-10-11,83.6,70.3,59.4,69.9,62.7,58.0,96,79,46,30.04,29.94,6,0,11,0.00
2013-10-12,83.9,71.7,63.2,68.6,63.7,60.3,93,78,47,30.04,29.96,4,0,10,0.00
2013-10-13,83.7,70.9,57.3,68.0,62.6,55.6,96,78,48,30.09,30.00,8,1,10,0.00
2013-10-14,79.1,70.3,63.2,69.7,66.1,62.0,97,87,71,30.06,29.98,12,2,16,0.00
2013-10-15,72.2,69.9,67.8,69.4,67.6,65.7,96,93,87,30.02,29.93,11,1,15,0.19
2013-10-16,81.7,72.1,64.7,73.2,68.4,63.5,96,89,73,29.98,29.91,7,1,11,0.00
2013-10-17,85.8,73.6,63.4,73.3,68.6,62.5,97,86,57,29.98,29.88,4,0,7,0.00
2013-10-18,85.9,76.7,66.3,75.7,71.4,65.1,96,84,60,29.99,29.89,7,1,9,0.01
2013-10-19,84.8,77.1,70.1,76.1,73.3,68.6,97,89,68,29.95,29.85,8,1,12,0.20
2013-10-20,78.3,72.7,67.9,71.9,68.0,64.9,97,86,72,29.99,29.88,9,1,11,0.00
2013-10-21,83.3,73.3,64.5,75.4,69.9,63.0,97,90,75,30.02,29.91,8,2,12,0.03
2013-10-22,83.2,74.8,71.1,77.0,72.9,69.9,98,94,76,29.97,29.80,4,0,6,0.65
2013-10-23,75.6,67.1,53.4,71.1,60.6,50.8,98,82,46,30.03,29.80,9,1,12,0.02
2013-10-24,69.7,57.0,48.4,55.9,49.6,45.6,94,78,47,30.19,30.03,3,0,6,0.00
2013-10-25,74.4,59.8,46.8,57.8,51.8,45.2,95,77,50,30.26,30.17,7,1,11,0.00
2013-10-26,73.9,58.4,46.0,57.1,50.7,44.1,94,78,48,30.25,30.12,6,1,8,0.00
2013-10-27,73.8,59.8,45.9,56.5,50.3,44.1,96,75,36,30.16,30.08,7,1,9,0.00
2013-10-28,79.1,63.3,48.3,64.8,56.5,46.5,96,80,50,30.22,30.12,7,1,10,0.00
2013-10-29,78.2,66.4,55.9,66.1,60.6,54.5,96,83,62,30.27,30.19,11,2,18,0.00
2013-10-30,79.7,69.1,59.3,68.6,63.8,57.8,96,84,66,30.26,30.14,10,3,15,0.01
2013-10-31,81.0,72.6,61.9,70.7,67.5,60.2,97,85,66,30.15,29.97,6,1,13,0.00